sensor_id;sensor_type;location;lat;lon;timestamp;P1;durP1;ratioP1;P2;durP2;ratioP2
50757;SDS011;36732;47.980;11.652;2023-03-04T00:01:58;35.53;;;23.08;;
50757;SDS011;36732;47.980;11.652;2023-03-04T00:04:25;35.38;;;24.08;;
50757;SDS011;36732;47.980;11.652;2023-03-04T00:06:50;34.20;;;24.67;;
50757;SDS011;36732;47.980;11.652;2023-03-04T00:09:16;35.65;;;25.00;;
50757;SDS011;36732;47.980;11.652;2023-03-04T00:11:42;34.08;;;23.20;;
50757;SDS011;36732;47.980;11.652;2023-03-04T00:14:07;38.25;;;24.60;;
50757;SDS011;36732;47.980;11.652;2023-03-04T00:16:33;35.80;;;24.10;;
50757;SDS011;36732;47.980;11.652;2023-03-04T00:18:59;34.22;;;22.70;;
50757;SDS011;36732;47.980;11.652;2023-03-04T00:21:25;35.17;;;24.27;;
50757;SDS011;36732;47.980;11.652;2023-03-04T00:23:50;33.25;;;22.92;;
50757;SDS011;36732;47.980;11.652;2023-03-04T00:26:16;35.67;;;23.45;;
50757;SDS011;36732;47.980;11.652;2023-03-04T00:28:42;36.55;;;24.45;;
50757;SDS011;36732;47.980;11.652;2023-03-04T00:31:08;33.35;;;22.63;;
50757;SDS011;36732;47.980;11.652;2023-03-04T00:33:35;35.10;;;23.35;;
50757;SDS011;36732;47.980;11.652;2023-03-04T00:36:01;33.30;;;23.08;;
50757;SDS011;36732;47.980;11.652;2023-03-04T00:38:28;32.40;;;22.40;;
50757;SDS011;36732;47.980;11.652;2023-03-04T00:40:54;34.65;;;23.60;;
50757;SDS011;36732;47.980;11.652;2023-03-04T00:43:20;33.10;;;22.17;;
50757;SDS011;36732;47.980;11.652;2023-03-04T00:45:46;32.65;;;22.30;;
50757;SDS011;36732;47.980;11.652;2023-03-04T00:48:12;37.42;;;24.13;;
50757;SDS011;36732;47.980;11.652;2023-03-04T00:50:38;33.38;;;22.35;;
50757;SDS011;36732;47.980;11.652;2023-03-04T00:53:04;36.85;;;23.50;;
50757;SDS011;36732;47.980;11.652;2023-03-04T00:55:30;30.80;;;20.80;;
50757;SDS011;36732;47.980;11.652;2023-03-04T00:57:56;35.55;;;23.35;;
50757;SDS011;36732;47.980;11.652;2023-03-04T01:00:21;33.00;;;22.67;;
50757;SDS011;36732;47.980;11.652;2023-03-04T01:02:47;34.67;;;22.50;;
50757;SDS011;36732;47.980;11.652;2023-03-04T01:05:13;36.67;;;23.50;;
50757;SDS011;36732;47.980;11.652;2023-03-04T01:07:39;30.38;;;21.13;;
50757;SDS011;36732;47.980;11.652;2023-03-04T01:10:05;31.23;;;22.55;;
50757;SDS011;36732;47.980;11.652;2023-03-04T01:12:32;33.20;;;22.67;;
50757;SDS011;36732;47.980;11.652;2023-03-04T01:14:58;33.38;;;23.15;;
50757;SDS011;36732;47.980;11.652;2023-03-04T01:17:24;33.92;;;23.33;;
50757;SDS011;36732;47.980;11.652;2023-03-04T01:19:50;33.15;;;22.30;;
50757;SDS011;36732;47.980;11.652;2023-03-04T01:22:16;33.72;;;22.65;;
50757;SDS011;36732;47.980;11.652;2023-03-04T01:24:43;34.33;;;22.90;;
50757;SDS011;36732;47.980;11.652;2023-03-04T01:27:09;34.92;;;22.55;;
50757;SDS011;36732;47.980;11.652;2023-03-04T01:29:36;33.70;;;23.17;;
50757;SDS011;36732;47.980;11.652;2023-03-04T01:32:01;30.63;;;21.00;;
50757;SDS011;36732;47.980;11.652;2023-03-04T01:34:27;35.80;;;24.75;;
50757;SDS011;36732;47.980;11.652;2023-03-04T01:36:53;31.77;;;21.38;;
50757;SDS011;36732;47.980;11.652;2023-03-04T01:39:18;31.92;;;22.73;;
50757;SDS011;36732;47.980;11.652;2023-03-04T01:41:44;33.28;;;22.02;;
50757;SDS011;36732;47.980;11.652;2023-03-04T01:44:10;33.00;;;21.67;;
50757;SDS011;36732;47.980;11.652;2023-03-04T01:46:36;32.10;;;22.00;;
50757;SDS011;36732;47.980;11.652;2023-03-04T01:49:05;28.70;;;20.73;;
50757;SDS011;36732;47.980;11.652;2023-03-04T01:51:34;30.17;;;21.30;;
50757;SDS011;36732;47.980;11.652;2023-03-04T01:53:59;31.20;;;22.13;;
50757;SDS011;36732;47.980;11.652;2023-03-04T01:56:29;35.38;;;22.10;;
50757;SDS011;36732;47.980;11.652;2023-03-04T02:01:54;33.17;;;22.88;;
50757;SDS011;36732;47.980;11.652;2023-03-04T02:04:30;32.25;;;22.52;;
50757;SDS011;36732;47.980;11.652;2023-03-04T02:06:58;33.75;;;22.88;;
50757;SDS011;36732;47.980;11.652;2023-03-04T02:09:26;32.92;;;23.02;;
50757;SDS011;36732;47.980;11.652;2023-03-04T02:11:53;34.10;;;22.25;;
50757;SDS011;36732;47.980;11.652;2023-03-04T02:14:19;36.22;;;22.50;;
50757;SDS011;36732;47.980;11.652;2023-03-04T02:16:47;34.40;;;23.15;;
50757;SDS011;36732;47.980;11.652;2023-03-04T02:19:26;33.45;;;23.00;;
50757;SDS011;36732;47.980;11.652;2023-03-04T02:22:31;32.45;;;22.70;;
50757;SDS011;36732;47.980;11.652;2023-03-04T02:25:10;37.90;;;25.00;;
50757;SDS011;36732;47.980;11.652;2023-03-04T02:27:44;33.60;;;22.35;;
50757;SDS011;36732;47.980;11.652;2023-03-04T02:30:10;36.65;;;24.17;;
50757;SDS011;36732;47.980;11.652;2023-03-04T02:32:43;36.58;;;23.77;;
50757;SDS011;36732;47.980;11.652;2023-03-04T02:35:12;36.63;;;23.70;;
50757;SDS011;36732;47.980;11.652;2023-03-04T02:37:43;32.40;;;22.65;;
50757;SDS011;36732;47.980;11.652;2023-03-04T02:40:12;33.58;;;22.88;;
50757;SDS011;36732;47.980;11.652;2023-03-04T02:42:57;31.58;;;20.33;;
50757;SDS011;36732;47.980;11.652;2023-03-04T02:48:00;33.05;;;22.90;;
50757;SDS011;36732;47.980;11.652;2023-03-04T02:50:27;32.05;;;21.63;;
50757;SDS011;36732;47.980;11.652;2023-03-04T02:52:58;31.52;;;21.83;;
50757;SDS011;36732;47.980;11.652;2023-03-04T02:55:24;33.75;;;22.15;;
50757;SDS011;36732;47.980;11.652;2023-03-04T02:57:49;31.50;;;21.23;;
50757;SDS011;36732;47.980;11.652;2023-03-04T03:00:15;32.55;;;22.08;;
50757;SDS011;36732;47.980;11.652;2023-03-04T03:02:41;34.20;;;22.42;;
50757;SDS011;36732;47.980;11.652;2023-03-04T03:05:07;34.00;;;22.15;;
50757;SDS011;36732;47.980;11.652;2023-03-04T03:07:32;31.92;;;21.95;;
50757;SDS011;36732;47.980;11.652;2023-03-04T03:10:02;34.10;;;22.98;;
50757;SDS011;36732;47.980;11.652;2023-03-04T03:12:28;31.15;;;21.00;;
50757;SDS011;36732;47.980;11.652;2023-03-04T03:14:54;33.33;;;21.52;;
50757;SDS011;36732;47.980;11.652;2023-03-04T03:17:20;33.63;;;22.52;;
50757;SDS011;36732;47.980;11.652;2023-03-04T03:19:45;34.08;;;22.27;;
50757;SDS011;36732;47.980;11.652;2023-03-04T03:22:11;33.70;;;21.92;;
50757;SDS011;36732;47.980;11.652;2023-03-04T03:24:37;30.42;;;21.42;;
50757;SDS011;36732;47.980;11.652;2023-03-04T03:27:02;30.90;;;20.60;;
50757;SDS011;36732;47.980;11.652;2023-03-04T03:29:28;31.00;;;21.27;;
50757;SDS011;36732;47.980;11.652;2023-03-04T03:31:54;34.97;;;22.08;;
50757;SDS011;36732;47.980;11.652;2023-03-04T03:34:20;31.25;;;21.90;;
50757;SDS011;36732;47.980;11.652;2023-03-04T03:36:47;32.00;;;20.38;;
50757;SDS011;36732;47.980;11.652;2023-03-04T03:39:12;31.55;;;20.80;;
50757;SDS011;36732;47.980;11.652;2023-03-04T03:41:39;30.90;;;21.17;;
50757;SDS011;36732;47.980;11.652;2023-03-04T03:44:05;30.92;;;20.02;;
50757;SDS011;36732;47.980;11.652;2023-03-04T03:46:32;31.02;;;21.23;;
50757;SDS011;36732;47.980;11.652;2023-03-04T03:48:59;35.60;;;21.83;;
50757;SDS011;36732;47.980;11.652;2023-03-04T03:51:25;32.10;;;21.30;;
50757;SDS011;36732;47.980;11.652;2023-03-04T03:53:51;28.88;;;19.58;;
50757;SDS011;36732;47.980;11.652;2023-03-04T03:56:16;28.95;;;20.25;;
50757;SDS011;36732;47.980;11.652;2023-03-04T03:58:42;30.27;;;20.40;;
50757;SDS011;36732;47.980;11.652;2023-03-04T04:01:08;28.63;;;19.08;;
50757;SDS011;36732;47.980;11.652;2023-03-04T04:03:34;34.67;;;20.35;;
50757;SDS011;36732;47.980;11.652;2023-03-04T04:05:59;25.73;;;17.70;;
50757;SDS011;36732;47.980;11.652;2023-03-04T04:08:25;28.33;;;19.55;;
50757;SDS011;36732;47.980;11.652;2023-03-04T04:10:51;30.50;;;20.15;;
50757;SDS011;36732;47.980;11.652;2023-03-04T04:13:16;29.00;;;19.80;;
50757;SDS011;36732;47.980;11.652;2023-03-04T04:15:42;29.75;;;19.38;;
50757;SDS011;36732;47.980;11.652;2023-03-04T04:18:08;24.92;;;17.60;;
50757;SDS011;36732;47.980;11.652;2023-03-04T04:20:34;26.98;;;18.13;;
50757;SDS011;36732;47.980;11.652;2023-03-04T04:23:00;26.05;;;18.08;;
50757;SDS011;36732;47.980;11.652;2023-03-04T04:25:27;26.63;;;18.77;;
50757;SDS011;36732;47.980;11.652;2023-03-04T04:27:53;26.95;;;18.30;;
50757;SDS011;36732;47.980;11.652;2023-03-04T04:30:18;26.05;;;17.35;;
50757;SDS011;36732;47.980;11.652;2023-03-04T04:32:44;26.60;;;17.67;;
50757;SDS011;36732;47.980;11.652;2023-03-04T04:35:10;28.55;;;19.35;;
50757;SDS011;36732;47.980;11.652;2023-03-04T04:37:35;30.80;;;18.83;;
50757;SDS011;36732;47.980;11.652;2023-03-04T04:40:02;24.95;;;17.77;;
50757;SDS011;36732;47.980;11.652;2023-03-04T04:42:28;24.55;;;17.10;;
50757;SDS011;36732;47.980;11.652;2023-03-04T04:44:54;26.05;;;18.08;;
50757;SDS011;36732;47.980;11.652;2023-03-04T04:47:21;25.08;;;17.02;;
50757;SDS011;36732;47.980;11.652;2023-03-04T04:49:47;25.80;;;16.85;;
50757;SDS011;36732;47.980;11.652;2023-03-04T04:52:12;22.13;;;16.25;;
50757;SDS011;36732;47.980;11.652;2023-03-04T04:54:38;24.85;;;17.30;;
50757;SDS011;36732;47.980;11.652;2023-03-04T04:57:04;23.23;;;16.40;;
50757;SDS011;36732;47.980;11.652;2023-03-04T04:59:30;21.52;;;15.45;;
50757;SDS011;36732;47.980;11.652;2023-03-04T05:01:55;21.88;;;15.70;;
50757;SDS011;36732;47.980;11.652;2023-03-04T05:04:21;22.58;;;15.85;;
50757;SDS011;36732;47.980;11.652;2023-03-04T05:06:47;21.42;;;15.23;;
50757;SDS011;36732;47.980;11.652;2023-03-04T05:09:12;24.95;;;17.15;;
50757;SDS011;36732;47.980;11.652;2023-03-04T05:11:38;23.70;;;16.33;;
50757;SDS011;36732;47.980;11.652;2023-03-04T05:14:04;23.73;;;17.35;;
50757;SDS011;36732;47.980;11.652;2023-03-04T05:16:29;21.98;;;15.57;;
50757;SDS011;36732;47.980;11.652;2023-03-04T05:18:55;25.70;;;16.42;;
50757;SDS011;36732;47.980;11.652;2023-03-04T05:21:21;27.30;;;17.40;;
50757;SDS011;36732;47.980;11.652;2023-03-04T05:23:47;20.60;;;14.10;;
50757;SDS011;36732;47.980;11.652;2023-03-04T05:26:14;22.20;;;16.02;;
50757;SDS011;36732;47.980;11.652;2023-03-04T05:28:42;21.17;;;15.05;;
50757;SDS011;36732;47.980;11.652;2023-03-04T05:31:08;19.00;;;14.30;;
50757;SDS011;36732;47.980;11.652;2023-03-04T05:33:34;21.10;;;15.43;;
50757;SDS011;36732;47.980;11.652;2023-03-04T05:36:01;21.17;;;15.30;;
50757;SDS011;36732;47.980;11.652;2023-03-04T05:38:28;18.77;;;14.27;;
50757;SDS011;36732;47.980;11.652;2023-03-04T05:40:55;19.35;;;14.38;;
50757;SDS011;36732;47.980;11.652;2023-03-04T05:43:24;19.27;;;13.57;;
50757;SDS011;36732;47.980;11.652;2023-03-04T05:45:51;19.95;;;14.35;;
50757;SDS011;36732;47.980;11.652;2023-03-04T05:48:18;21.52;;;14.82;;
50757;SDS011;36732;47.980;11.652;2023-03-04T05:50:44;21.63;;;15.40;;
50757;SDS011;36732;47.980;11.652;2023-03-04T05:53:10;24.40;;;16.30;;
50757;SDS011;36732;47.980;11.652;2023-03-04T05:55:36;21.95;;;14.57;;
50757;SDS011;36732;47.980;11.652;2023-03-04T05:58:02;22.85;;;15.57;;
50757;SDS011;36732;47.980;11.652;2023-03-04T06:00:28;23.95;;;16.45;;
50757;SDS011;36732;47.980;11.652;2023-03-04T06:02:54;21.23;;;15.98;;
50757;SDS011;36732;47.980;11.652;2023-03-04T06:05:20;21.85;;;15.23;;
50757;SDS011;36732;47.980;11.652;2023-03-04T06:07:46;24.00;;;16.75;;
50757;SDS011;36732;47.980;11.652;2023-03-04T06:10:13;20.52;;;16.10;;
50757;SDS011;36732;47.980;11.652;2023-03-04T06:12:41;25.15;;;17.20;;
50757;SDS011;36732;47.980;11.652;2023-03-04T06:15:07;21.92;;;16.75;;
50757;SDS011;36732;47.980;11.652;2023-03-04T06:17:37;24.48;;;16.50;;
50757;SDS011;36732;47.980;11.652;2023-03-04T06:20:04;24.08;;;17.58;;
50757;SDS011;36732;47.980;11.652;2023-03-04T06:22:31;23.17;;;16.77;;
50757;SDS011;36732;47.980;11.652;2023-03-04T06:24:58;22.30;;;16.35;;
50757;SDS011;36732;47.980;11.652;2023-03-04T06:27:24;23.58;;;17.33;;
50757;SDS011;36732;47.980;11.652;2023-03-04T06:29:49;25.70;;;18.00;;
50757;SDS011;36732;47.980;11.652;2023-03-04T06:32:15;25.83;;;17.45;;
50757;SDS011;36732;47.980;11.652;2023-03-04T06:34:41;20.85;;;15.30;;
50757;SDS011;36732;47.980;11.652;2023-03-04T06:37:06;21.10;;;15.63;;
50757;SDS011;36732;47.980;11.652;2023-03-04T06:39:32;19.83;;;15.32;;
50757;SDS011;36732;47.980;11.652;2023-03-04T06:41:58;21.95;;;16.85;;
50757;SDS011;36732;47.980;11.652;2023-03-04T06:44:24;22.80;;;16.17;;
50757;SDS011;36732;47.980;11.652;2023-03-04T06:46:49;21.02;;;15.80;;
50757;SDS011;36732;47.980;11.652;2023-03-04T06:49:15;25.02;;;16.45;;
50757;SDS011;36732;47.980;11.652;2023-03-04T06:51:41;21.52;;;16.08;;
50757;SDS011;36732;47.980;11.652;2023-03-04T06:54:07;21.08;;;16.77;;
50757;SDS011;36732;47.980;11.652;2023-03-04T06:56:33;25.63;;;16.88;;
50757;SDS011;36732;47.980;11.652;2023-03-04T06:58:59;21.33;;;15.88;;
50757;SDS011;36732;47.980;11.652;2023-03-04T07:01:25;25.17;;;17.90;;
50757;SDS011;36732;47.980;11.652;2023-03-04T07:03:54;22.60;;;16.30;;
50757;SDS011;36732;47.980;11.652;2023-03-04T07:06:22;25.92;;;18.40;;
50757;SDS011;36732;47.980;11.652;2023-03-04T07:08:50;25.73;;;17.70;;
50757;SDS011;36732;47.980;11.652;2023-03-04T07:11:18;23.52;;;17.55;;
50757;SDS011;36732;47.980;11.652;2023-03-04T07:13:46;26.27;;;18.50;;
50757;SDS011;36732;47.980;11.652;2023-03-04T07:16:13;29.77;;;20.55;;
50757;SDS011;36732;47.980;11.652;2023-03-04T07:18:43;26.63;;;19.55;;
50757;SDS011;36732;47.980;11.652;2023-03-04T07:21:09;26.50;;;16.63;;
50757;SDS011;36732;47.980;11.652;2023-03-04T07:23:36;27.30;;;18.48;;
50757;SDS011;36732;47.980;11.652;2023-03-04T07:26:03;29.65;;;19.75;;
50757;SDS011;36732;47.980;11.652;2023-03-04T07:28:29;34.28;;;24.50;;
50757;SDS011;36732;47.980;11.652;2023-03-04T07:30:55;28.73;;;22.25;;
50757;SDS011;36732;47.980;11.652;2023-03-04T07:33:20;29.25;;;21.45;;
50757;SDS011;36732;47.980;11.652;2023-03-04T07:35:46;33.67;;;21.90;;
50757;SDS011;36732;47.980;11.652;2023-03-04T07:38:12;33.17;;;21.55;;
50757;SDS011;36732;47.980;11.652;2023-03-04T07:40:38;36.28;;;22.63;;
50757;SDS011;36732;47.980;11.652;2023-03-04T07:43:03;38.72;;;22.00;;
50757;SDS011;36732;47.980;11.652;2023-03-04T07:45:29;35.33;;;23.33;;
50757;SDS011;36732;47.980;11.652;2023-03-04T07:47:56;43.50;;;23.92;;
50757;SDS011;36732;47.980;11.652;2023-03-04T07:50:22;32.78;;;21.67;;
50757;SDS011;36732;47.980;11.652;2023-03-04T07:56:30;29.98;;;20.55;;
50757;SDS011;36732;47.980;11.652;2023-03-04T07:58:58;31.65;;;22.45;;
50757;SDS011;36732;47.980;11.652;2023-03-04T08:01:29;31.85;;;21.77;;
50757;SDS011;36732;47.980;11.652;2023-03-04T08:03:57;32.20;;;21.65;;
50757;SDS011;36732;47.980;11.652;2023-03-04T08:06:23;27.98;;;20.33;;
50757;SDS011;36732;47.980;11.652;2023-03-04T08:08:54;35.58;;;23.48;;
50757;SDS011;36732;47.980;11.652;2023-03-04T08:11:22;31.77;;;22.33;;
50757;SDS011;36732;47.980;11.652;2023-03-04T08:13:48;30.35;;;21.70;;
50757;SDS011;36732;47.980;11.652;2023-03-04T08:16:15;33.58;;;20.50;;
50757;SDS011;36732;47.980;11.652;2023-03-04T08:18:43;33.15;;;24.48;;
50757;SDS011;36732;47.980;11.652;2023-03-04T08:21:12;33.08;;;22.63;;
50757;SDS011;36732;47.980;11.652;2023-03-04T08:23:39;29.55;;;21.83;;
50757;SDS011;36732;47.980;11.652;2023-03-04T08:26:09;32.00;;;22.65;;
50757;SDS011;36732;47.980;11.652;2023-03-04T08:28:39;32.17;;;23.02;;
50757;SDS011;36732;47.980;11.652;2023-03-04T08:31:05;31.58;;;22.65;;
50757;SDS011;36732;47.980;11.652;2023-03-04T08:33:31;30.83;;;22.10;;
50757;SDS011;36732;47.980;11.652;2023-03-04T08:35:58;31.60;;;22.50;;
50757;SDS011;36732;47.980;11.652;2023-03-04T08:38:24;29.33;;;21.42;;
50757;SDS011;36732;47.980;11.652;2023-03-04T08:40:51;30.30;;;22.35;;
50757;SDS011;36732;47.980;11.652;2023-03-04T08:43:20;34.00;;;22.33;;
50757;SDS011;36732;47.980;11.652;2023-03-04T08:45:46;29.45;;;21.92;;
50757;SDS011;36732;47.980;11.652;2023-03-04T08:48:12;30.77;;;21.60;;
50757;SDS011;36732;47.980;11.652;2023-03-04T08:50:38;31.23;;;22.65;;
50757;SDS011;36732;47.980;11.652;2023-03-04T08:53:04;32.88;;;21.92;;
50757;SDS011;36732;47.980;11.652;2023-03-04T08:55:30;29.52;;;21.30;;
50757;SDS011;36732;47.980;11.652;2023-03-04T08:57:55;31.55;;;21.77;;
50757;SDS011;36732;47.980;11.652;2023-03-04T09:00:21;31.15;;;22.52;;
50757;SDS011;36732;47.980;11.652;2023-03-04T09:02:47;33.75;;;21.33;;
50757;SDS011;36732;47.980;11.652;2023-03-04T09:05:14;28.02;;;20.35;;
50757;SDS011;36732;47.980;11.652;2023-03-04T09:07:40;28.52;;;20.02;;
50757;SDS011;36732;47.980;11.652;2023-03-04T09:10:05;30.17;;;21.95;;
50757;SDS011;36732;47.980;11.652;2023-03-04T09:12:32;29.33;;;20.90;;
50757;SDS011;36732;47.980;11.652;2023-03-04T09:14:57;29.90;;;20.08;;
50757;SDS011;36732;47.980;11.652;2023-03-04T09:17:23;32.90;;;21.85;;
50757;SDS011;36732;47.980;11.652;2023-03-04T09:19:49;26.65;;;19.83;;
50757;SDS011;36732;47.980;11.652;2023-03-04T09:22:15;28.40;;;20.00;;
50757;SDS011;36732;47.980;11.652;2023-03-04T09:24:40;30.35;;;20.63;;
50757;SDS011;36732;47.980;11.652;2023-03-04T09:27:07;30.25;;;22.23;;
50757;SDS011;36732;47.980;11.652;2023-03-04T09:29:33;31.73;;;22.23;;
50757;SDS011;36732;47.980;11.652;2023-03-04T09:31:59;29.98;;;20.33;;
50757;SDS011;36732;47.980;11.652;2023-03-04T09:34:25;31.23;;;20.35;;
50757;SDS011;36732;47.980;11.652;2023-03-04T09:36:50;25.73;;;19.45;;
50757;SDS011;36732;47.980;11.652;2023-03-04T09:39:16;28.20;;;20.58;;
50757;SDS011;36732;47.980;11.652;2023-03-04T09:41:43;30.75;;;19.88;;
50757;SDS011;36732;47.980;11.652;2023-03-04T09:44:21;29.30;;;20.40;;
50757;SDS011;36732;47.980;11.652;2023-03-04T09:46:55;31.47;;;20.50;;
50757;SDS011;36732;47.980;11.652;2023-03-04T09:49:27;29.75;;;20.90;;
50757;SDS011;36732;47.980;11.652;2023-03-04T09:51:59;28.50;;;19.63;;
50757;SDS011;36732;47.980;11.652;2023-03-04T09:57:36;27.98;;;20.27;;
50757;SDS011;36732;47.980;11.652;2023-03-04T10:00:35;32.90;;;20.52;;
50757;SDS011;36732;47.980;11.652;2023-03-04T10:08:32;27.73;;;18.80;;
50757;SDS011;36732;47.980;11.652;2023-03-04T10:16:56;24.25;;;17.67;;
50757;SDS011;36732;47.980;11.652;2023-03-04T10:19:40;25.88;;;18.15;;
50757;SDS011;36732;47.980;11.652;2023-03-04T10:27:57;30.90;;;18.55;;
50757;SDS011;36732;47.980;11.652;2023-03-04T10:30:31;29.25;;;18.95;;
50757;SDS011;36732;47.980;11.652;2023-03-04T10:33:24;26.65;;;18.48;;
50757;SDS011;36732;47.980;11.652;2023-03-04T10:38:38;26.70;;;18.40;;
50757;SDS011;36732;47.980;11.652;2023-03-04T10:41:16;23.65;;;17.58;;
50757;SDS011;36732;47.980;11.652;2023-03-04T10:43:50;21.88;;;16.55;;
50757;SDS011;36732;47.980;11.652;2023-03-04T10:46:28;24.25;;;17.75;;
50757;SDS011;36732;47.980;11.652;2023-03-04T10:48:55;23.65;;;17.30;;
50757;SDS011;36732;47.980;11.652;2023-03-04T10:54:04;26.95;;;18.30;;
50757;SDS011;36732;47.980;11.652;2023-03-04T10:59:48;23.20;;;16.20;;
50757;SDS011;36732;47.980;11.652;2023-03-04T11:02:16;23.63;;;16.42;;
50757;SDS011;36732;47.980;11.652;2023-03-04T11:10:17;28.45;;;21.00;;
50757;SDS011;36732;47.980;11.652;2023-03-04T11:13:26;27.85;;;19.98;;
50757;SDS011;36732;47.980;11.652;2023-03-04T11:21:04;29.98;;;20.13;;
50757;SDS011;36732;47.980;11.652;2023-03-04T11:23:35;27.60;;;20.20;;
50757;SDS011;36732;47.980;11.652;2023-03-04T11:26:14;26.90;;;19.20;;
50757;SDS011;36732;47.980;11.652;2023-03-04T11:28:46;29.95;;;19.95;;
50757;SDS011;36732;47.980;11.652;2023-03-04T11:31:21;28.02;;;20.05;;
50757;SDS011;36732;47.980;11.652;2023-03-04T11:34:00;28.88;;;20.73;;
50757;SDS011;36732;47.980;11.652;2023-03-04T11:36:50;26.90;;;20.20;;
50757;SDS011;36732;47.980;11.652;2023-03-04T11:39:33;29.67;;;21.10;;
50757;SDS011;36732;47.980;11.652;2023-03-04T11:44:57;31.85;;;19.42;;
50757;SDS011;36732;47.980;11.652;2023-03-04T11:50:34;29.23;;;19.52;;
50757;SDS011;36732;47.980;11.652;2023-03-04T12:04:58;25.08;;;17.38;;
50757;SDS011;36732;47.980;11.652;2023-03-04T12:26:02;24.25;;;16.65;;
50757;SDS011;36732;47.980;11.652;2023-03-04T12:31:25;34.50;;;18.60;;
50757;SDS011;36732;47.980;11.652;2023-03-04T12:37:11;22.40;;;15.80;;
50757;SDS011;36732;47.980;11.652;2023-03-04T12:42:59;22.23;;;16.00;;
50757;SDS011;36732;47.980;11.652;2023-03-04T12:48:34;26.95;;;17.38;;
50757;SDS011;36732;47.980;11.652;2023-03-04T12:51:15;24.42;;;17.02;;
50757;SDS011;36732;47.980;11.652;2023-03-04T12:53:57;23.02;;;15.93;;
50757;SDS011;36732;47.980;11.652;2023-03-04T12:56:44;21.37;;;15.67;;
50757;SDS011;36732;47.980;11.652;2023-03-04T12:59:18;24.80;;;17.45;;
50757;SDS011;36732;47.980;11.652;2023-03-04T13:05:02;27.00;;;17.30;;
50757;SDS011;36732;47.980;11.652;2023-03-04T13:08:07;28.95;;;17.20;;
50757;SDS011;36732;47.980;11.652;2023-03-04T13:10:51;24.02;;;17.48;;
50757;SDS011;36732;47.980;11.652;2023-03-04T13:13:33;24.38;;;17.95;;
50757;SDS011;36732;47.980;11.652;2023-03-04T13:18:42;25.65;;;17.23;;
50757;SDS011;36732;47.980;11.652;2023-03-04T13:23:37;23.85;;;16.80;;
50757;SDS011;36732;47.980;11.652;2023-03-04T13:26:08;22.73;;;15.43;;
50757;SDS011;36732;47.980;11.652;2023-03-04T13:28:45;25.88;;;15.98;;
50757;SDS011;36732;47.980;11.652;2023-03-04T13:31:15;23.63;;;16.92;;
50757;SDS011;36732;47.980;11.652;2023-03-04T13:36:32;26.60;;;19.23;;
50757;SDS011;36732;47.980;11.652;2023-03-04T13:41:49;25.90;;;17.50;;
50757;SDS011;36732;47.980;11.652;2023-03-04T13:44:30;30.10;;;17.60;;
50757;SDS011;36732;47.980;11.652;2023-03-04T13:47:06;28.25;;;16.73;;
50757;SDS011;36732;47.980;11.652;2023-03-04T13:49:40;24.05;;;16.70;;
50757;SDS011;36732;47.980;11.652;2023-03-04T13:57:59;26.70;;;18.15;;
50757;SDS011;36732;47.980;11.652;2023-03-04T14:00:41;28.83;;;19.67;;
50757;SDS011;36732;47.980;11.652;2023-03-04T14:03:18;29.23;;;19.48;;
50757;SDS011;36732;47.980;11.652;2023-03-04T14:06:18;29.20;;;20.40;;
50757;SDS011;36732;47.980;11.652;2023-03-04T14:08:53;30.42;;;19.65;;
50757;SDS011;36732;47.980;11.652;2023-03-04T14:11:32;31.08;;;19.65;;
50757;SDS011;36732;47.980;11.652;2023-03-04T14:14:06;30.00;;;19.98;;
50757;SDS011;36732;47.980;11.652;2023-03-04T14:16:38;28.98;;;19.65;;
50757;SDS011;36732;47.980;11.652;2023-03-04T14:19:14;31.05;;;20.02;;
50757;SDS011;36732;47.980;11.652;2023-03-04T14:21:54;29.67;;;20.13;;
50757;SDS011;36732;47.980;11.652;2023-03-04T14:24:21;28.23;;;20.95;;
50757;SDS011;36732;47.980;11.652;2023-03-04T14:26:48;31.35;;;21.52;;
50757;SDS011;36732;47.980;11.652;2023-03-04T14:29:24;29.42;;;21.42;;
50757;SDS011;36732;47.980;11.652;2023-03-04T14:31:54;29.83;;;20.10;;
50757;SDS011;36732;47.980;11.652;2023-03-04T14:34:27;29.35;;;21.08;;
50757;SDS011;36732;47.980;11.652;2023-03-04T14:36:57;30.52;;;20.80;;
50757;SDS011;36732;47.980;11.652;2023-03-04T14:39:25;37.00;;;20.92;;
50757;SDS011;36732;47.980;11.652;2023-03-04T14:41:54;25.27;;;18.25;;
50757;SDS011;36732;47.980;11.652;2023-03-04T14:47:16;27.83;;;19.00;;
50757;SDS011;36732;47.980;11.652;2023-03-04T14:49:50;26.27;;;19.13;;
50757;SDS011;36732;47.980;11.652;2023-03-04T14:52:31;25.88;;;18.58;;
50757;SDS011;36732;47.980;11.652;2023-03-04T14:57:48;22.40;;;17.45;;
50757;SDS011;36732;47.980;11.652;2023-03-04T15:00:30;23.30;;;17.33;;
50757;SDS011;36732;47.980;11.652;2023-03-04T15:06:07;27.02;;;17.88;;
50757;SDS011;36732;47.980;11.652;2023-03-04T15:08:42;26.17;;;18.63;;
50757;SDS011;36732;47.980;11.652;2023-03-04T15:11:13;26.80;;;18.65;;
50757;SDS011;36732;47.980;11.652;2023-03-04T15:13:52;26.33;;;17.67;;
50757;SDS011;36732;47.980;11.652;2023-03-04T15:16:20;27.02;;;19.30;;
50757;SDS011;36732;47.980;11.652;2023-03-04T15:18:56;26.48;;;18.00;;
50757;SDS011;36732;47.980;11.652;2023-03-04T15:21:44;27.88;;;18.40;;
50757;SDS011;36732;47.980;11.652;2023-03-04T15:24:09;25.02;;;17.08;;
50757;SDS011;36732;47.980;11.652;2023-03-04T15:26:38;20.95;;;15.77;;
50757;SDS011;36732;47.980;11.652;2023-03-04T15:29:10;22.88;;;16.25;;
50757;SDS011;36732;47.980;11.652;2023-03-04T15:31:41;27.00;;;17.13;;
50757;SDS011;36732;47.980;11.652;2023-03-04T15:34:10;25.02;;;16.75;;
50757;SDS011;36732;47.980;11.652;2023-03-04T15:36:42;22.67;;;16.52;;
50757;SDS011;36732;47.980;11.652;2023-03-04T15:39:12;22.27;;;15.80;;
50757;SDS011;36732;47.980;11.652;2023-03-04T15:41:41;23.95;;;15.50;;
50757;SDS011;36732;47.980;11.652;2023-03-04T15:44:08;18.83;;;13.95;;
50757;SDS011;36732;47.980;11.652;2023-03-04T15:46:36;21.33;;;14.73;;
50757;SDS011;36732;47.980;11.652;2023-03-04T15:49:02;23.65;;;15.73;;
50757;SDS011;36732;47.980;11.652;2023-03-04T15:51:28;22.33;;;14.38;;
50757;SDS011;36732;47.980;11.652;2023-03-04T15:53:54;21.90;;;15.07;;
50757;SDS011;36732;47.980;11.652;2023-03-04T15:56:22;19.75;;;14.73;;
50757;SDS011;36732;47.980;11.652;2023-03-04T15:58:55;21.15;;;15.20;;
50757;SDS011;36732;47.980;11.652;2023-03-04T16:01:24;19.40;;;14.27;;
50757;SDS011;36732;47.980;11.652;2023-03-04T16:03:50;19.48;;;13.18;;
50757;SDS011;36732;47.980;11.652;2023-03-04T16:06:17;19.40;;;13.93;;
50757;SDS011;36732;47.980;11.652;2023-03-04T16:08:45;23.20;;;13.52;;
50757;SDS011;36732;47.980;11.652;2023-03-04T16:11:15;19.73;;;13.75;;
50757;SDS011;36732;47.980;11.652;2023-03-04T16:13:52;20.75;;;13.27;;
50757;SDS011;36732;47.980;11.652;2023-03-04T16:16:18;17.50;;;12.68;;
50757;SDS011;36732;47.980;11.652;2023-03-04T16:18:44;17.77;;;13.13;;
50757;SDS011;36732;47.980;11.652;2023-03-04T16:21:14;19.75;;;13.95;;
50757;SDS011;36732;47.980;11.652;2023-03-04T16:23:44;20.77;;;13.63;;
50757;SDS011;36732;47.980;11.652;2023-03-04T16:26:22;21.17;;;13.73;;